sensor_id;sensor_type;location;lat;lon;timestamp;P1;durP1;ratioP1;P2;durP2;ratioP2
19643;SDS011;9970;-36.854;174.870;2023-12-29T00:00:55;9.60;;;3.60;;
19643;SDS011;9970;-36.854;174.870;2023-12-29T00:03:28;10.63;;;3.83;;
19643;SDS011;9970;-36.854;174.870;2023-12-29T00:06:02;5.87;;;3.73;;
19643;SDS011;9970;-36.854;174.870;2023-12-29T00:08:41;7.03;;;3.40;;
19643;SDS011;9970;-36.854;174.870;2023-12-29T00:11:16;8.07;;;3.20;;
19643;SDS011;9970;-36.854;174.870;2023-12-29T00:13:51;7.10;;;3.10;;
19643;SDS011;9970;-36.854;174.870;2023-12-29T00:16:24;8.10;;;3.57;;
19643;SDS011;9970;-36.854;174.870;2023-12-29T00:18:59;5.90;;;3.47;;
19643;SDS011;9970;-36.854;174.870;2023-12-29T00:21:32;8.00;;;3.13;;
19643;SDS011;9970;-36.854;174.870;2023-12-29T00:24:05;6.47;;;2.80;;
19643;SDS011;9970;-36.854;174.870;2023-12-29T00:26:38;5.97;;;3.47;;
19643;SDS011;9970;-36.854;174.870;2023-12-29T00:29:12;5.63;;;3.10;;
19643;SDS011;9970;-36.854;174.870;2023-12-29T00:31:45;9.00;;;3.57;;
19643;SDS011;9970;-36.854;174.870;2023-12-29T00:34:19;6.90;;;3.37;;
19643;SDS011;9970;-36.854;174.870;2023-12-29T00:36:52;5.13;;;3.03;;
19643;SDS011;9970;-36.854;174.870;2023-12-29T00:39:30;4.83;;;3.17;;
19643;SDS011;9970;-36.854;174.870;2023-12-29T00:42:04;4.97;;;3.87;;
19643;SDS011;9970;-36.854;174.870;2023-12-29T00:44:37;8.53;;;3.30;;
19643;SDS011;9970;-36.854;174.870;2023-12-29T00:47:10;8.33;;;3.40;;
19643;SDS011;9970;-36.854;174.870;2023-12-29T00:49:44;11.93;;;3.90;;
19643;SDS011;9970;-36.854;174.870;2023-12-29T00:52:17;3.67;;;3.37;;
19643;SDS011;9970;-36.854;174.870;2023-12-29T00:54:50;5.73;;;5.20;;
19643;SDS011;9970;-36.854;174.870;2023-12-29T00:57:23;7.17;;;4.00;;
19643;SDS011;9970;-36.854;174.870;2023-12-29T00:59:56;9.03;;;3.20;;
19643;SDS011;9970;-36.854;174.870;2023-12-29T01:02:29;6.63;;;3.10;;
19643;SDS011;9970;-36.854;174.870;2023-12-29T01:05:07;7.50;;;2.97;;
19643;SDS011;9970;-36.854;174.870;2023-12-29T01:07:40;3.20;;;3.00;;
19643;SDS011;9970;-36.854;174.870;2023-12-29T01:10:13;7.17;;;3.40;;
19643;SDS011;9970;-36.854;174.870;2023-12-29T01:12:46;7.63;;;3.33;;
19643;SDS011;9970;-36.854;174.870;2023-12-29T01:15:20;4.17;;;3.00;;
19643;SDS011;9970;-36.854;174.870;2023-12-29T01:17:53;5.63;;;3.33;;
19643;SDS011;9970;-36.854;174.870;2023-12-29T01:20:26;2.73;;;2.53;;
19643;SDS011;9970;-36.854;174.870;2023-12-29T01:22:59;8.07;;;3.80;;
19643;SDS011;9970;-36.854;174.870;2023-12-29T01:25:32;3.33;;;3.03;;
19643;SDS011;9970;-36.854;174.870;2023-12-29T01:28:06;7.13;;;3.10;;
19643;SDS011;9970;-36.854;174.870;2023-12-29T01:30:39;5.77;;;3.47;;
19643;SDS011;9970;-36.854;174.870;2023-12-29T01:33:12;10.73;;;3.27;;
19643;SDS011;9970;-36.854;174.870;2023-12-29T01:35:49;10.13;;;3.30;;
19643;SDS011;9970;-36.854;174.870;2023-12-29T01:38:24;3.37;;;3.07;;
19643;SDS011;9970;-36.854;174.870;2023-12-29T01:40:57;3.73;;;2.40;;
19643;SDS011;9970;-36.854;174.870;2023-12-29T01:43:30;5.13;;;3.70;;
19643;SDS011;9970;-36.854;174.870;2023-12-29T01:46:03;4.83;;;2.90;;
19643;SDS011;9970;-36.854;174.870;2023-12-29T01:48:36;2.93;;;2.77;;
19643;SDS011;9970;-36.854;174.870;2023-12-29T01:51:09;8.97;;;3.80;;
19643;SDS011;9970;-36.854;174.870;2023-12-29T01:53:42;8.00;;;3.30;;
19643;SDS011;9970;-36.854;174.870;2023-12-29T01:56:16;10.00;;;3.63;;
19643;SDS011;9970;-36.854;174.870;2023-12-29T01:58:49;8.23;;;3.97;;
19643;SDS011;9970;-36.854;174.870;2023-12-29T02:01:24;10.03;;;4.10;;
19643;SDS011;9970;-36.854;174.870;2023-12-29T02:03:58;4.57;;;4.17;;
19643;SDS011;9970;-36.854;174.870;2023-12-29T02:06:32;5.67;;;4.07;;
19643;SDS011;9970;-36.854;174.870;2023-12-29T02:09:05;5.23;;;3.30;;
19643;SDS011;9970;-36.854;174.870;2023-12-29T02:11:38;10.80;;;3.43;;
19643;SDS011;9970;-36.854;174.870;2023-12-29T02:14:12;8.93;;;3.27;;
19643;SDS011;9970;-36.854;174.870;2023-12-29T02:19:40;8.10;;;2.83;;
19643;SDS011;9970;-36.854;174.870;2023-12-29T02:22:15;5.30;;;3.17;;
19643;SDS011;9970;-36.854;174.870;2023-12-29T02:24:54;6.03;;;3.47;;
19643;SDS011;9970;-36.854;174.870;2023-12-29T02:33:21;4.53;;;3.00;;
19643;SDS011;9970;-36.854;174.870;2023-12-29T02:35:56;2.20;;;2.00;;
19643;SDS011;9970;-36.854;174.870;2023-12-29T02:38:31;2.40;;;2.00;;
19643;SDS011;9970;-36.854;174.870;2023-12-29T02:41:04;4.77;;;2.80;;
19643;SDS011;9970;-36.854;174.870;2023-12-29T02:43:38;3.30;;;2.37;;
19643;SDS011;9970;-36.854;174.870;2023-12-29T02:46:11;3.97;;;2.80;;
19643;SDS011;9970;-36.854;174.870;2023-12-29T02:48:44;4.77;;;2.80;;
19643;SDS011;9970;-36.854;174.870;2023-12-29T02:51:17;3.57;;;3.20;;
19643;SDS011;9970;-36.854;174.870;2023-12-29T02:53:50;3.20;;;2.63;;
19643;SDS011;9970;-36.854;174.870;2023-12-29T02:56:24;10.33;;;2.80;;
19643;SDS011;9970;-36.854;174.870;2023-12-29T02:58:57;4.07;;;1.90;;
19643;SDS011;9970;-36.854;174.870;2023-12-29T03:01:30;2.70;;;2.37;;
19643;SDS011;9970;-36.854;174.870;2023-12-29T03:04:03;7.93;;;4.53;;
19643;SDS011;9970;-36.854;174.870;2023-12-29T03:06:37;3.13;;;2.20;;
19643;SDS011;9970;-36.854;174.870;2023-12-29T03:09:11;3.40;;;2.50;;
19643;SDS011;9970;-36.854;174.870;2023-12-29T03:11:44;5.00;;;3.40;;
19643;SDS011;9970;-36.854;174.870;2023-12-29T03:14:17;4.63;;;2.70;;
19643;SDS011;9970;-36.854;174.870;2023-12-29T03:16:50;7.00;;;2.70;;
19643;SDS011;9970;-36.854;174.870;2023-12-29T03:19:23;4.80;;;3.17;;
19643;SDS011;9970;-36.854;174.870;2023-12-29T03:21:57;4.40;;;2.87;;
19643;SDS011;9970;-36.854;174.870;2023-12-29T03:24:30;4.40;;;2.50;;
19643;SDS011;9970;-36.854;174.870;2023-12-29T03:27:03;2.27;;;2.13;;
19643;SDS011;9970;-36.854;174.870;2023-12-29T03:29:36;2.87;;;2.57;;
19643;SDS011;9970;-36.854;174.870;2023-12-29T03:32:13;4.07;;;2.47;;
19643;SDS011;9970;-36.854;174.870;2023-12-29T03:34:46;5.70;;;2.67;;
19643;SDS011;9970;-36.854;174.870;2023-12-29T03:37:20;4.20;;;2.60;;
19643;SDS011;9970;-36.854;174.870;2023-12-29T03:39:53;3.87;;;2.87;;
19643;SDS011;9970;-36.854;174.870;2023-12-29T03:42:26;9.57;;;2.70;;
19643;SDS011;9970;-36.854;174.870;2023-12-29T03:44:59;3.03;;;1.73;;
19643;SDS011;9970;-36.854;174.870;2023-12-29T03:47:33;2.30;;;1.60;;
19643;SDS011;9970;-36.854;174.870;2023-12-29T03:50:06;7.63;;;2.10;;
19643;SDS011;9970;-36.854;174.870;2023-12-29T03:52:39;4.00;;;1.20;;
19643;SDS011;9970;-36.854;174.870;2023-12-29T03:55:12;1.83;;;1.10;;
19643;SDS011;9970;-36.854;174.870;2023-12-29T03:57:46;1.00;;;1.00;;
19643;SDS011;9970;-36.854;174.870;2023-12-29T04:00:19;5.07;;;1.23;;
19643;SDS011;9970;-36.854;174.870;2023-12-29T04:02:52;1.10;;;1.00;;
19643;SDS011;9970;-36.854;174.870;2023-12-29T04:05:25;5.30;;;1.07;;
19643;SDS011;9970;-36.854;174.870;2023-12-29T04:07:58;1.20;;;1.20;;
19643;SDS011;9970;-36.854;174.870;2023-12-29T04:10:31;0.83;;;0.80;;
19643;SDS011;9970;-36.854;174.870;2023-12-29T04:13:04;0.97;;;0.97;;
19643;SDS011;9970;-36.854;174.870;2023-12-29T04:15:37;4.73;;;1.43;;
19643;SDS011;9970;-36.854;174.870;2023-12-29T04:18:10;1.60;;;1.00;;
19643;SDS011;9970;-36.854;174.870;2023-12-29T04:20:44;3.60;;;1.43;;
19643;SDS011;9970;-36.854;174.870;2023-12-29T04:23:17;4.83;;;1.00;;
19643;SDS011;9970;-36.854;174.870;2023-12-29T04:25:50;1.73;;;1.17;;
19643;SDS011;9970;-36.854;174.870;2023-12-29T04:28:23;3.43;;;1.00;;
19643;SDS011;9970;-36.854;174.870;2023-12-29T04:30:56;1.10;;;1.10;;
19643;SDS011;9970;-36.854;174.870;2023-12-29T04:33:29;0.90;;;0.90;;
19643;SDS011;9970;-36.854;174.870;2023-12-29T04:36:02;4.13;;;1.00;;
19643;SDS011;9970;-36.854;174.870;2023-12-29T04:38:36;2.50;;;0.90;;
19643;SDS011;9970;-36.854;174.870;2023-12-29T04:41:11;1.50;;;1.00;;
19643;SDS011;9970;-36.854;174.870;2023-12-29T04:43:44;1.00;;;0.80;;
19643;SDS011;9970;-36.854;174.870;2023-12-29T04:46:17;0.70;;;0.70;;
19643;SDS011;9970;-36.854;174.870;2023-12-29T04:48:50;3.90;;;1.50;;
19643;SDS011;9970;-36.854;174.870;2023-12-29T04:51:23;1.40;;;1.30;;
19643;SDS011;9970;-36.854;174.870;2023-12-29T04:53:56;1.80;;;1.27;;
19643;SDS011;9970;-36.854;174.870;2023-12-29T04:56:29;1.10;;;1.07;;
19643;SDS011;9970;-36.854;174.870;2023-12-29T04:59:02;1.00;;;0.90;;
19643;SDS011;9970;-36.854;174.870;2023-12-29T05:01:35;4.90;;;0.70;;
19643;SDS011;9970;-36.854;174.870;2023-12-29T05:04:08;3.97;;;1.53;;
19643;SDS011;9970;-36.854;174.870;2023-12-29T05:06:42;2.93;;;1.00;;
19643;SDS011;9970;-36.854;174.870;2023-12-29T05:09:15;0.80;;;0.80;;
19643;SDS011;9970;-36.854;174.870;2023-12-29T05:11:48;2.27;;;1.30;;
19643;SDS011;9970;-36.854;174.870;2023-12-29T05:14:21;2.57;;;1.00;;
19643;SDS011;9970;-36.854;174.870;2023-12-29T05:16:58;1.00;;;1.00;;
19643;SDS011;9970;-36.854;174.870;2023-12-29T05:19:32;1.20;;;0.80;;
19643;SDS011;9970;-36.854;174.870;2023-12-29T05:22:05;1.17;;;1.00;;
19643;SDS011;9970;-36.854;174.870;2023-12-29T05:24:39;0.97;;;0.73;;
19643;SDS011;9970;-36.854;174.870;2023-12-29T05:27:13;5.57;;;1.67;;
19643;SDS011;9970;-36.854;174.870;2023-12-29T05:29:46;1.20;;;1.20;;
19643;SDS011;9970;-36.854;174.870;2023-12-29T05:32:19;5.83;;;1.13;;
19643;SDS011;9970;-36.854;174.870;2023-12-29T05:34:53;22.93;;;3.13;;
19643;SDS011;9970;-36.854;174.870;2023-12-29T05:37:26;6.03;;;2.57;;
19643;SDS011;9970;-36.854;174.870;2023-12-29T05:40:04;7.63;;;1.63;;
19643;SDS011;9970;-36.854;174.870;2023-12-29T05:42:38;3.00;;;1.07;;
19643;SDS011;9970;-36.854;174.870;2023-12-29T05:45:11;5.73;;;1.40;;
19643;SDS011;9970;-36.854;174.870;2023-12-29T05:47:44;3.90;;;1.30;;
19643;SDS011;9970;-36.854;174.870;2023-12-29T05:50:17;1.13;;;1.03;;
19643;SDS011;9970;-36.854;174.870;2023-12-29T05:52:50;5.67;;;0.93;;
19643;SDS011;9970;-36.854;174.870;2023-12-29T05:55:23;1.43;;;0.67;;
19643;SDS011;9970;-36.854;174.870;2023-12-29T05:57:57;0.70;;;0.70;;
19643;SDS011;9970;-36.854;174.870;2023-12-29T06:00:30;3.63;;;0.80;;
19643;SDS011;9970;-36.854;174.870;2023-12-29T06:03:04;5.80;;;1.00;;
19643;SDS011;9970;-36.854;174.870;2023-12-29T06:05:37;1.00;;;0.70;;
19643;SDS011;9970;-36.854;174.870;2023-12-29T06:08:11;1.50;;;0.70;;
19643;SDS011;9970;-36.854;174.870;2023-12-29T06:10:44;0.93;;;0.83;;
19643;SDS011;9970;-36.854;174.870;2023-12-29T06:13:17;3.10;;;0.90;;
19643;SDS011;9970;-36.854;174.870;2023-12-29T06:15:51;0.70;;;0.70;;
19643;SDS011;9970;-36.854;174.870;2023-12-29T06:18:24;4.93;;;0.80;;
19643;SDS011;9970;-36.854;174.870;2023-12-29T06:20:57;0.60;;;0.60;;
19643;SDS011;9970;-36.854;174.870;2023-12-29T06:23:31;0.87;;;0.60;;
19643;SDS011;9970;-36.854;174.870;2023-12-29T06:26:04;1.27;;;0.60;;
19643;SDS011;9970;-36.854;174.870;2023-12-29T06:28:38;3.20;;;0.60;;
19643;SDS011;9970;-36.854;174.870;2023-12-29T06:31:12;0.80;;;0.80;;
19643;SDS011;9970;-36.854;174.870;2023-12-29T06:33:45;2.07;;;0.70;;
19643;SDS011;9970;-36.854;174.870;2023-12-29T06:36:18;4.73;;;0.70;;
19643;SDS011;9970;-36.854;174.870;2023-12-29T06:38:51;1.10;;;0.90;;
19643;SDS011;9970;-36.854;174.870;2023-12-29T06:41:24;0.60;;;0.60;;
19643;SDS011;9970;-36.854;174.870;2023-12-29T06:43:57;2.57;;;2.37;;
19643;SDS011;9970;-36.854;174.870;2023-12-29T06:46:30;0.60;;;0.60;;
19643;SDS011;9970;-36.854;174.870;2023-12-29T06:49:03;0.57;;;0.57;;
19643;SDS011;9970;-36.854;174.870;2023-12-29T06:51:37;1.27;;;0.77;;
19643;SDS011;9970;-36.854;174.870;2023-12-29T06:54:10;0.90;;;0.90;;
19643;SDS011;9970;-36.854;174.870;2023-12-29T06:56:43;0.93;;;0.77;;
19643;SDS011;9970;-36.854;174.870;2023-12-29T06:59:17;0.87;;;0.80;;
19643;SDS011;9970;-36.854;174.870;2023-12-29T07:01:50;4.03;;;1.00;;
19643;SDS011;9970;-36.854;174.870;2023-12-29T07:04:24;2.53;;;0.90;;
19643;SDS011;9970;-36.854;174.870;2023-12-29T07:06:57;3.80;;;0.97;;
19643;SDS011;9970;-36.854;174.870;2023-12-29T07:09:32;1.73;;;1.00;;
19643;SDS011;9970;-36.854;174.870;2023-12-29T07:12:07;1.63;;;1.00;;
19643;SDS011;9970;-36.854;174.870;2023-12-29T07:14:40;1.57;;;1.03;;
19643;SDS011;9970;-36.854;174.870;2023-12-29T07:17:13;3.57;;;1.10;;
19643;SDS011;9970;-36.854;174.870;2023-12-29T07:19:46;5.80;;;1.13;;
19643;SDS011;9970;-36.854;174.870;2023-12-29T07:22:19;3.90;;;1.00;;
19643;SDS011;9970;-36.854;174.870;2023-12-29T07:24:52;2.70;;;1.00;;
19643;SDS011;9970;-36.854;174.870;2023-12-29T07:27:26;4.57;;;1.00;;
19643;SDS011;9970;-36.854;174.870;2023-12-29T07:29:59;3.10;;;1.37;;
19643;SDS011;9970;-36.854;174.870;2023-12-29T07:32:32;6.97;;;1.40;;
19643;SDS011;9970;-36.854;174.870;2023-12-29T07:35:06;13.57;;;1.70;;
19643;SDS011;9970;-36.854;174.870;2023-12-29T07:37:39;8.10;;;1.33;;
19643;SDS011;9970;-36.854;174.870;2023-12-29T07:40:13;3.83;;;2.00;;
19643;SDS011;9970;-36.854;174.870;2023-12-29T07:42:46;4.00;;;1.27;;
19643;SDS011;9970;-36.854;174.870;2023-12-29T07:45:22;4.23;;;1.10;;
19643;SDS011;9970;-36.854;174.870;2023-12-29T07:47:55;1.17;;;0.90;;
19643;SDS011;9970;-36.854;174.870;2023-12-29T07:50:34;1.00;;;0.90;;
19643;SDS011;9970;-36.854;174.870;2023-12-29T07:53:07;2.17;;;1.00;;
19643;SDS011;9970;-36.854;174.870;2023-12-29T07:55:40;1.83;;;0.87;;
19643;SDS011;9970;-36.854;174.870;2023-12-29T07:58:13;1.43;;;0.80;;
19643;SDS011;9970;-36.854;174.870;2023-12-29T08:00:46;1.60;;;1.10;;
19643;SDS011;9970;-36.854;174.870;2023-12-29T08:03:20;1.93;;;0.80;;
19643;SDS011;9970;-36.854;174.870;2023-12-29T08:05:53;2.07;;;0.80;;
19643;SDS011;9970;-36.854;174.870;2023-12-29T08:08:26;1.80;;;0.73;;
19643;SDS011;9970;-36.854;174.870;2023-12-29T08:10:59;0.90;;;0.90;;
19643;SDS011;9970;-36.854;174.870;2023-12-29T08:13:31;2.00;;;0.77;;
19643;SDS011;9970;-36.854;174.870;2023-12-29T08:16:05;0.80;;;0.80;;
19643;SDS011;9970;-36.854;174.870;2023-12-29T08:18:38;0.70;;;0.70;;
19643;SDS011;9970;-36.854;174.870;2023-12-29T08:21:21;1.70;;;0.80;;
19643;SDS011;9970;-36.854;174.870;2023-12-29T08:23:50;2.77;;;0.80;;
19643;SDS011;9970;-36.854;174.870;2023-12-29T08:26:23;1.00;;;0.90;;
19643;SDS011;9970;-36.854;174.870;2023-12-29T08:28:59;1.43;;;0.80;;
19643;SDS011;9970;-36.854;174.870;2023-12-29T08:31:32;2.00;;;0.80;;
19643;SDS011;9970;-36.854;174.870;2023-12-29T08:34:05;1.03;;;0.90;;
19643;SDS011;9970;-36.854;174.870;2023-12-29T08:36:39;6.80;;;1.17;;
19643;SDS011;9970;-36.854;174.870;2023-12-29T08:39:12;1.90;;;0.70;;
19643;SDS011;9970;-36.854;174.870;2023-12-29T08:41:46;1.03;;;1.03;;
19643;SDS011;9970;-36.854;174.870;2023-12-29T08:44:22;1.43;;;0.80;;
19643;SDS011;9970;-36.854;174.870;2023-12-29T08:46:55;1.87;;;0.90;;
19643;SDS011;9970;-36.854;174.870;2023-12-29T08:49:28;0.90;;;0.90;;
19643;SDS011;9970;-36.854;174.870;2023-12-29T08:52:01;0.70;;;0.70;;
19643;SDS011;9970;-36.854;174.870;2023-12-29T08:54:35;3.43;;;1.07;;
19643;SDS011;9970;-36.854;174.870;2023-12-29T08:57:08;0.80;;;0.80;;
19643;SDS011;9970;-36.854;174.870;2023-12-29T08:59:41;1.00;;;0.90;;
19643;SDS011;9970;-36.854;174.870;2023-12-29T09:02:14;2.43;;;1.10;;
19643;SDS011;9970;-36.854;174.870;2023-12-29T09:04:47;0.93;;;0.93;;
19643;SDS011;9970;-36.854;174.870;2023-12-29T09:07:20;2.07;;;1.20;;
19643;SDS011;9970;-36.854;174.870;2023-12-29T09:09:56;0.90;;;0.90;;
19643;SDS011;9970;-36.854;174.870;2023-12-29T09:12:30;7.40;;;0.83;;
19643;SDS011;9970;-36.854;174.870;2023-12-29T09:15:03;1.67;;;1.10;;
19643;SDS011;9970;-36.854;174.870;2023-12-29T09:17:37;1.37;;;1.37;;
19643;SDS011;9970;-36.854;174.870;2023-12-29T09:20:10;1.33;;;0.73;;
19643;SDS011;9970;-36.854;174.870;2023-12-29T09:22:44;1.07;;;0.97;;
19643;SDS011;9970;-36.854;174.870;2023-12-29T09:25:17;0.70;;;0.70;;
19643;SDS011;9970;-36.854;174.870;2023-12-29T09:27:50;3.33;;;0.83;;
19643;SDS011;9970;-36.854;174.870;2023-12-29T09:30:24;1.27;;;0.70;;
19643;SDS011;9970;-36.854;174.870;2023-12-29T09:32:57;1.90;;;0.70;;
19643;SDS011;9970;-36.854;174.870;2023-12-29T09:35:30;2.70;;;1.60;;
19643;SDS011;9970;-36.854;174.870;2023-12-29T09:38:04;0.83;;;0.83;;
19643;SDS011;9970;-36.854;174.870;2023-12-29T09:40:38;2.47;;;1.20;;
19643;SDS011;9970;-36.854;174.870;2023-12-29T09:43:12;2.87;;;0.90;;
19643;SDS011;9970;-36.854;174.870;2023-12-29T09:45:45;1.67;;;1.53;;
19643;SDS011;9970;-36.854;174.870;2023-12-29T09:48:20;1.17;;;0.90;;
19643;SDS011;9970;-36.854;174.870;2023-12-29T09:50:54;2.43;;;1.00;;
19643;SDS011;9970;-36.854;174.870;2023-12-29T09:53:28;3.03;;;1.70;;
19643;SDS011;9970;-36.854;174.870;2023-12-29T09:56:02;5.07;;;1.53;;
19643;SDS011;9970;-36.854;174.870;2023-12-29T09:58:36;2.50;;;1.43;;
19643;SDS011;9970;-36.854;174.870;2023-12-29T10:01:09;8.40;;;2.50;;
19643;SDS011;9970;-36.854;174.870;2023-12-29T10:03:42;6.97;;;2.40;;
19643;SDS011;9970;-36.854;174.870;2023-12-29T10:06:23;6.53;;;3.47;;
19643;SDS011;9970;-36.854;174.870;2023-12-29T10:08:56;6.87;;;3.43;;
19643;SDS011;9970;-36.854;174.870;2023-12-29T10:11:30;6.83;;;2.60;;
19643;SDS011;9970;-36.854;174.870;2023-12-29T10:14:09;6.40;;;3.37;;
19643;SDS011;9970;-36.854;174.870;2023-12-29T10:16:43;6.53;;;3.20;;
19643;SDS011;9970;-36.854;174.870;2023-12-29T10:19:23;6.10;;;3.40;;
19643;SDS011;9970;-36.854;174.870;2023-12-29T10:22:35;7.97;;;3.00;;
19643;SDS011;9970;-36.854;174.870;2023-12-29T10:25:05;6.80;;;4.23;;
19643;SDS011;9970;-36.854;174.870;2023-12-29T10:27:39;6.17;;;3.47;;
19643;SDS011;9970;-36.854;174.870;2023-12-29T10:30:12;4.30;;;2.70;;
19643;SDS011;9970;-36.854;174.870;2023-12-29T10:32:50;8.97;;;2.87;;
19643;SDS011;9970;-36.854;174.870;2023-12-29T10:35:23;9.87;;;2.57;;
19643;SDS011;9970;-36.854;174.870;2023-12-29T10:38:16;11.33;;;3.37;;
19643;SDS011;9970;-36.854;174.870;2023-12-29T10:40:41;6.40;;;2.37;;
19643;SDS011;9970;-36.854;174.870;2023-12-29T10:43:16;4.20;;;2.70;;
19643;SDS011;9970;-36.854;174.870;2023-12-29T10:45:49;5.50;;;1.90;;
19643;SDS011;9970;-36.854;174.870;2023-12-29T10:48:23;3.07;;;2.63;;
19643;SDS011;9970;-36.854;174.870;2023-12-29T10:50:56;3.80;;;2.93;;
19643;SDS011;9970;-36.854;174.870;2023-12-29T10:53:34;2.90;;;2.27;;
19643;SDS011;9970;-36.854;174.870;2023-12-29T10:56:18;6.23;;;2.40;;
19643;SDS011;9970;-36.854;174.870;2023-12-29T10:59:05;4.87;;;2.63;;
19643;SDS011;9970;-36.854;174.870;2023-12-29T11:01:38;4.27;;;2.13;;
19643;SDS011;9970;-36.854;174.870;2023-12-29T11:04:12;4.63;;;2.23;;
19643;SDS011;9970;-36.854;174.870;2023-12-29T11:06:45;4.47;;;2.50;;
19643;SDS011;9970;-36.854;174.870;2023-12-29T11:09:28;1.90;;;1.80;;
19643;SDS011;9970;-36.854;174.870;2023-12-29T11:12:08;3.13;;;2.33;;
19643;SDS011;9970;-36.854;174.870;2023-12-29T11:14:43;3.50;;;2.43;;
19643;SDS011;9970;-36.854;174.870;2023-12-29T11:17:17;6.80;;;2.70;;
19643;SDS011;9970;-36.854;174.870;2023-12-29T11:19:52;5.03;;;2.87;;
19643;SDS011;9970;-36.854;174.870;2023-12-29T11:22:27;5.70;;;3.73;;
19643;SDS011;9970;-36.854;174.870;2023-12-29T11:25:04;2.00;;;1.90;;
19643;SDS011;9970;-36.854;174.870;2023-12-29T11:27:38;2.20;;;1.93;;
19643;SDS011;9970;-36.854;174.870;2023-12-29T11:30:11;4.10;;;2.00;;
19643;SDS011;9970;-36.854;174.870;2023-12-29T11:32:57;10.83;;;2.40;;
19643;SDS011;9970;-36.854;174.870;2023-12-29T11:44:07;1.67;;;1.57;;
19643;SDS011;9970;-36.854;174.870;2023-12-29T11:46:45;2.10;;;1.77;;
19643;SDS011;9970;-36.854;174.870;2023-12-29T11:49:14;8.77;;;2.43;;
19643;SDS011;9970;-36.854;174.870;2023-12-29T11:51:48;8.00;;;2.60;;
19643;SDS011;9970;-36.854;174.870;2023-12-29T11:54:27;3.70;;;2.07;;
19643;SDS011;9970;-36.854;174.870;2023-12-29T11:57:00;6.97;;;2.00;;
19643;SDS011;9970;-36.854;174.870;2023-12-29T11:59:34;5.50;;;1.87;;
19643;SDS011;9970;-36.854;174.870;2023-12-29T12:02:08;5.73;;;2.90;;
19643;SDS011;9970;-36.854;174.870;2023-12-29T12:04:43;4.70;;;2.70;;
19643;SDS011;9970;-36.854;174.870;2023-12-29T12:07:17;8.00;;;2.27;;
19643;SDS011;9970;-36.854;174.870;2023-12-29T12:09:51;4.50;;;1.90;;
19643;SDS011;9970;-36.854;174.870;2023-12-29T12:12:38;1.83;;;1.73;;
19643;SDS011;9970;-36.854;174.870;2023-12-29T12:18:03;5.47;;;1.77;;
19643;SDS011;9970;-36.854;174.870;2023-12-29T12:20:38;5.03;;;2.13;;
19643;SDS011;9970;-36.854;174.870;2023-12-29T12:23:12;5.60;;;1.90;;
19643;SDS011;9970;-36.854;174.870;2023-12-29T12:25:49;2.30;;;1.97;;
19643;SDS011;9970;-36.854;174.870;2023-12-29T12:28:23;4.40;;;2.47;;
19643;SDS011;9970;-36.854;174.870;2023-12-29T12:31:05;4.83;;;2.13;;
19643;SDS011;9970;-36.854;174.870;2023-12-29T12:33:38;3.30;;;2.20;;
19643;SDS011;9970;-36.854;174.870;2023-12-29T12:36:12;10.57;;;2.77;;
19643;SDS011;9970;-36.854;174.870;2023-12-29T12:38:51;7.93;;;3.30;;
19643;SDS011;9970;-36.854;174.870;2023-12-29T12:41:29;17.73;;;4.13;;
19643;SDS011;9970;-36.854;174.870;2023-12-29T12:44:10;19.27;;;3.77;;
19643;SDS011;9970;-36.854;174.870;2023-12-29T12:46:56;33.93;;;5.57;;
19643;SDS011;9970;-36.854;174.870;2023-12-29T12:49:28;22.80;;;5.00;;
19643;SDS011;9970;-36.854;174.870;2023-12-29T12:52:01;16.87;;;4.93;;
19643;SDS011;9970;-36.854;174.870;2023-12-29T12:54:35;23.90;;;3.83;;
19643;SDS011;9970;-36.854;174.870;2023-12-29T12:57:08;11.37;;;2.80;;
19643;SDS011;9970;-36.854;174.870;2023-12-29T12:59:41;4.40;;;2.17;;
19643;SDS011;9970;-36.854;174.870;2023-12-29T13:02:14;25.53;;;4.40;;
19643;SDS011;9970;-36.854;174.870;2023-12-29T13:04:49;59.00;;;6.13;;
19643;SDS011;9970;-36.854;174.870;2023-12-29T13:07:23;11.40;;;2.83;;
19643;SDS011;9970;-36.854;174.870;2023-12-29T13:09:56;11.53;;;2.37;;
19643;SDS011;9970;-36.854;174.870;2023-12-29T13:12:29;6.10;;;2.17;;
19643;SDS011;9970;-36.854;174.870;2023-12-29T13:15:09;3.67;;;2.00;;
19643;SDS011;9970;-36.854;174.870;2023-12-29T13:17:49;16.47;;;3.83;;
19643;SDS011;9970;-36.854;174.870;2023-12-29T13:20:19;4.47;;;3.47;;
19643;SDS011;9970;-36.854;174.870;2023-12-29T13:22:55;3.90;;;1.70;;
19643;SDS011;9970;-36.854;174.870;2023-12-29T13:25:29;7.93;;;1.40;;
19643;SDS011;9970;-36.854;174.870;2023-12-29T13:28:04;9.63;;;3.60;;
19643;SDS011;9970;-36.854;174.870;2023-12-29T13:30:39;7.57;;;1.30;;
19643;SDS011;9970;-36.854;174.870;2023-12-29T13:33:24;10.03;;;2.27;;
19643;SDS011;9970;-36.854;174.870;2023-12-29T13:36:08;4.80;;;1.43;;
19643;SDS011;9970;-36.854;174.870;2023-12-29T13:38:47;14.53;;;1.57;;
19643;SDS011;9970;-36.854;174.870;2023-12-29T13:41:15;1.27;;;1.07;;
19643;SDS011;9970;-36.854;174.870;2023-12-29T13:43:49;7.70;;;1.33;;
19643;SDS011;9970;-36.854;174.870;2023-12-29T13:46:23;7.40;;;1.20;;
19643;SDS011;9970;-36.854;174.870;2023-12-29T13:48:56;8.30;;;1.47;;
19643;SDS011;9970;-36.854;174.870;2023-12-29T13:51:30;19.33;;;1.57;;
19643;SDS011;9970;-36.854;174.870;2023-12-29T13:54:03;2.70;;;0.93;;
19643;SDS011;9970;-36.854;174.870;2023-12-29T13:56:36;3.43;;;1.13;;
19643;SDS011;9970;-36.854;174.870;2023-12-29T13:59:09;0.77;;;0.77;;
19643;SDS011;9970;-36.854;174.870;2023-12-29T14:01:42;4.53;;;1.37;;
19643;SDS011;9970;-36.854;174.870;2023-12-29T14:04:16;1.53;;;0.80;;
19643;SDS011;9970;-36.854;174.870;2023-12-29T14:06:50;6.73;;;1.20;;
19643;SDS011;9970;-36.854;174.870;2023-12-29T14:09:25;9.70;;;1.53;;
19643;SDS011;9970;-36.854;174.870;2023-12-29T14:11:58;3.03;;;0.90;;
19643;SDS011;9970;-36.854;174.870;2023-12-29T14:14:32;1.47;;;1.00;;
19643;SDS011;9970;-36.854;174.870;2023-12-29T14:17:05;5.93;;;1.57;;
19643;SDS011;9970;-36.854;174.870;2023-12-29T14:19:40;31.90;;;1.83;;
19643;SDS011;9970;-36.854;174.870;2023-12-29T14:22:20;6.67;;;1.30;;
19643;SDS011;9970;-36.854;174.870;2023-12-29T14:25:05;7.07;;;1.60;;
19643;SDS011;9970;-36.854;174.870;2023-12-29T14:27:40;36.13;;;2.97;;
19643;SDS011;9970;-36.854;174.870;2023-12-29T14:30:19;5.30;;;1.93;;
19643;SDS011;9970;-36.854;174.870;2023-12-29T14:32:52;5.40;;;1.40;;
19643;SDS011;9970;-36.854;174.870;2023-12-29T14:35:25;1.70;;;1.07;;
19643;SDS011;9970;-36.854;174.870;2023-12-29T14:37:59;6.00;;;1.87;;
19643;SDS011;9970;-36.854;174.870;2023-12-29T14:40:32;6.43;;;1.67;;
19643;SDS011;9970;-36.854;174.870;2023-12-29T14:43:05;1.70;;;1.60;;
19643;SDS011;9970;-36.854;174.870;2023-12-29T14:45:39;1.80;;;1.27;;
19643;SDS011;9970;-36.854;174.870;2023-12-29T14:48:13;1.00;;;1.00;;
19643;SDS011;9970;-36.854;174.870;2023-12-29T14:50:46;11.17;;;1.67;;
19643;SDS011;9970;-36.854;174.870;2023-12-29T14:53:19;11.63;;;2.10;;
19643;SDS011;9970;-36.854;174.870;2023-12-29T14:55:52;3.40;;;1.30;;
19643;SDS011;9970;-36.854;174.870;2023-12-29T14:58:25;1.27;;;1.20;;
19643;SDS011;9970;-36.854;174.870;2023-12-29T15:00:59;3.30;;;1.37;;
19643;SDS011;9970;-36.854;174.870;2023-12-29T15:03:32;1.30;;;1.20;;
19643;SDS011;9970;-36.854;174.870;2023-12-29T15:06:05;6.37;;;1.97;;
19643;SDS011;9970;-36.854;174.870;2023-12-29T15:08:39;5.50;;;1.77;;
19643;SDS011;9970;-36.854;174.870;2023-12-29T15:11:12;12.77;;;1.60;;
19643;SDS011;9970;-36.854;174.870;2023-12-29T15:13:46;1.30;;;1.27;;
19643;SDS011;9970;-36.854;174.870;2023-12-29T15:16:19;8.13;;;1.80;;
19643;SDS011;9970;-36.854;174.870;2023-12-29T15:18:52;1.27;;;1.27;;
19643;SDS011;9970;-36.854;174.870;2023-12-29T15:21:25;3.30;;;1.97;;